createdAt,value
2018-11-11T00:00:52.245Z,20.09
2018-11-11T00:01:52.223Z,20.09
2018-11-11T00:02:52.205Z,20.10
2018-11-11T00:03:52.186Z,20.13
2018-11-11T00:04:52.160Z,20.10
2018-11-11T00:05:52.141Z,20.13
2018-11-11T00:06:52.125Z,20.03
2018-11-11T00:07:52.108Z,20.02
2018-11-11T00:08:52.077Z,20.02
2018-11-11T00:09:52.046Z,20.00
2018-11-11T00:10:52.028Z,20.00
2018-11-11T00:11:52.012Z,20.00
2018-11-11T00:12:52.002Z,19.94
2018-11-11T00:13:51.974Z,19.98
2018-11-11T00:14:51.939Z,19.97
2018-11-11T00:15:51.930Z,19.95
2018-11-11T00:16:51.911Z,20.00
2018-11-11T00:17:51.893Z,19.90
2018-11-11T00:18:51.870Z,19.88
2018-11-11T00:19:51.830Z,19.93
2018-11-11T00:20:51.825Z,19.90
2018-11-11T00:21:51.948Z,19.84
2018-11-11T00:22:51.784Z,19.87
2018-11-11T00:23:51.769Z,19.87
2018-11-11T00:24:51.745Z,19.88
2018-11-11T00:25:51.723Z,19.83
2018-11-11T00:26:51.698Z,19.86
2018-11-11T00:27:51.665Z,19.87
2018-11-11T00:28:51.664Z,19.88
2018-11-11T00:29:51.645Z,19.86
2018-11-11T00:30:51.619Z,19.86
2018-11-11T00:31:51.605Z,19.87
2018-11-11T00:32:51.578Z,19.84
2018-11-11T00:33:51.550Z,19.86
2018-11-11T00:34:51.537Z,19.84
2018-11-11T00:35:51.520Z,19.88
2018-11-11T00:36:51.494Z,19.88
2018-11-11T00:37:51.477Z,19.93
2018-11-11T00:38:51.442Z,19.97
2018-11-11T00:39:51.428Z,19.88
2018-11-11T00:40:51.407Z,19.90
2018-11-11T00:41:51.386Z,19.90
2018-11-11T00:42:51.360Z,19.91
2018-11-11T00:43:51.328Z,19.93
2018-11-11T00:44:51.308Z,20.02
2018-11-11T00:45:51.310Z,19.95
2018-11-11T00:46:51.281Z,20.00
2018-11-11T00:47:51.261Z,20.00
2018-11-11T00:48:51.238Z,19.93
2018-11-11T00:49:51.215Z,20.02
2018-11-11T00:50:51.196Z,20.02
2018-11-11T00:51:51.179Z,20.00
2018-11-11T00:52:51.155Z,19.95
2018-11-11T00:53:51.135Z,19.95
2018-11-11T00:54:51.099Z,19.97
2018-11-11T00:55:51.091Z,19.95
2018-11-11T00:56:51.067Z,20.03
2018-11-11T00:57:51.054Z,19.98
2018-11-11T00:58:51.021Z,20.02
2018-11-11T00:59:51.003Z,19.88
2018-11-11T01:00:50.988Z,19.86
2018-11-11T01:01:50.963Z,19.97
2018-11-11T01:02:50.932Z,20.02
2018-11-11T01:03:50.908Z,19.97
2018-11-11T01:04:50.896Z,19.97
2018-11-11T01:05:50.881Z,20.00
2018-11-11T01:06:50.862Z,20.02
2018-11-11T01:07:50.840Z,19.98
2018-11-11T01:08:50.823Z,20.03
2018-11-11T01:09:50.800Z,19.98
2018-11-11T01:11:23.996Z,19.98
2018-11-11T01:11:50.756Z,20.03
2018-11-11T01:12:50.741Z,19.98
2018-11-11T01:13:50.720Z,20.08
2018-11-11T01:14:50.695Z,20.00
2018-11-11T01:15:50.672Z,20.05
2018-11-11T01:16:50.654Z,20.03
2018-11-11T01:17:50.618Z,20.02
2018-11-11T01:18:50.606Z,19.98
2018-11-11T01:19:50.588Z,19.97
2018-11-11T01:20:50.569Z,20.09
2018-11-11T01:21:50.551Z,20.10
2018-11-11T01:22:50.512Z,20.10
2018-11-11T01:23:50.491Z,20.10
2018-11-11T01:24:50.489Z,20.10
2018-11-11T01:25:50.466Z,20.15
2018-11-11T01:26:50.446Z,20.13
2018-11-11T01:27:50.425Z,20.10
2018-11-11T01:28:50.405Z,20.08
2018-11-11T01:29:50.380Z,20.02
2018-11-11T01:30:50.358Z,20.03
2018-11-11T01:31:50.339Z,20.08
2018-11-11T01:32:50.319Z,20.13
2018-11-11T01:33:50.296Z,20.13
2018-11-11T01:34:50.273Z,20.18
2018-11-11T01:35:50.256Z,20.10
2018-11-11T01:36:50.231Z,20.20
2018-11-11T01:37:50.211Z,20.09
2018-11-11T01:38:50.191Z,20.13
2018-11-11T01:39:50.170Z,20.12
2018-11-11T01:40:50.147Z,20.10
2018-11-11T01:41:50.132Z,20.12
2018-11-11T01:42:50.095Z,20.15
2018-11-11T01:43:50.091Z,20.10
2018-11-11T01:44:50.071Z,20.10
2018-11-11T01:45:50.042Z,20.13
2018-11-11T01:46:50.029Z,20.06
2018-11-11T01:47:50.006Z,20.06
2018-11-11T01:48:49.990Z,20.15
2018-11-11T01:49:49.963Z,20.13
2018-11-11T01:50:49.942Z,20.13
2018-11-11T01:51:49.920Z,20.13
2018-11-11T01:52:49.907Z,20.13
2018-11-11T01:53:49.882Z,20.09
2018-11-11T01:54:49.858Z,20.10
2018-11-11T01:55:49.843Z,20.13
2018-11-11T01:56:49.817Z,20.09
2018-11-11T01:57:49.796Z,20.10
2018-11-11T01:58:49.776Z,20.12
2018-11-11T01:59:49.749Z,20.02
2018-11-11T02:00:49.722Z,20.00
2018-11-11T02:01:49.711Z,20.00
2018-11-11T02:02:49.692Z,19.97
2018-11-11T02:03:49.667Z,20.05
2018-11-11T02:04:49.650Z,19.95
2018-11-11T02:05:49.615Z,19.97
2018-11-11T02:06:49.604Z,20.05
2018-11-11T02:07:49.624Z,20.02
2018-11-11T02:08:49.569Z,20.09
2018-11-11T02:09:49.587Z,20.03
2018-11-11T02:10:49.518Z,20.10
2018-11-11T02:11:49.505Z,20.10
2018-11-11T02:12:49.484Z,20.12
2018-11-11T02:13:49.472Z,20.09
2018-11-11T02:14:49.436Z,20.12
2018-11-11T02:15:49.418Z,20.18
2018-11-11T02:16:49.396Z,20.13
2018-11-11T02:17:49.384Z,20.15
2018-11-11T02:18:49.364Z,20.08
2018-11-11T02:19:49.343Z,20.27
2018-11-11T02:20:49.326Z,20.25
2018-11-11T02:21:49.289Z,20.18
2018-11-11T02:22:49.279Z,20.28
2018-11-11T02:23:49.250Z,20.27
2018-11-11T02:24:49.233Z,20.24
2018-11-11T02:25:49.196Z,20.25
2018-11-11T02:26:49.190Z,20.30
2018-11-11T02:27:49.167Z,20.28
2018-11-11T02:28:49.152Z,20.27
2018-11-11T02:29:49.132Z,20.28
2018-11-11T02:30:49.109Z,20.30
2018-11-11T02:31:49.088Z,20.41
2018-11-11T02:32:49.069Z,20.39
2018-11-11T02:33:49.043Z,20.41
2018-11-11T02:34:49.032Z,20.33
2018-11-11T02:35:49.001Z,20.41
2018-11-11T02:36:48.987Z,20.38
2018-11-11T02:37:48.971Z,20.41
2018-11-11T02:38:48.939Z,20.41
2018-11-11T02:39:48.922Z,20.38
2018-11-11T02:40:48.886Z,20.33
2018-11-11T02:41:48.883Z,20.38
2018-11-11T02:42:48.857Z,20.41
2018-11-11T02:43:48.840Z,20.42
2018-11-11T02:44:48.818Z,20.43
2018-11-11T02:45:48.801Z,20.38
2018-11-11T02:47:21.968Z,20.34
2018-11-11T02:47:48.761Z,20.34
2018-11-11T02:48:48.725Z,20.47
2018-11-11T02:49:48.712Z,20.39
2018-11-11T02:50:48.694Z,20.41
2018-11-11T02:51:48.677Z,20.38
2018-11-11T02:52:48.651Z,20.41
2018-11-11T02:53:48.619Z,20.46
2018-11-11T02:54:48.614Z,20.43
2018-11-11T02:55:48.589Z,20.35
2018-11-11T02:56:48.573Z,20.39
2018-11-11T02:57:48.554Z,20.35
2018-11-11T02:58:48.527Z,20.39
2018-11-11T02:59:48.493Z,20.41
2018-11-11T03:00:48.472Z,20.39
2018-11-11T03:01:48.450Z,20.43
2018-11-11T03:02:48.446Z,20.42
2018-11-11T03:03:48.424Z,20.53
2018-11-11T03:04:48.392Z,20.43
2018-11-11T03:05:48.382Z,20.50
2018-11-11T03:06:48.366Z,20.49
2018-11-11T03:07:48.342Z,20.47
2018-11-11T03:08:48.308Z,20.49
2018-11-11T03:09:48.290Z,20.39
2018-11-11T03:10:48.268Z,20.41
2018-11-11T03:11:48.259Z,20.43
2018-11-11T03:12:48.244Z,20.46
2018-11-11T03:13:48.225Z,20.43
2018-11-11T03:14:48.197Z,20.42
2018-11-11T03:15:48.186Z,20.38
2018-11-11T03:16:48.156Z,20.38
2018-11-11T03:17:48.142Z,20.41
2018-11-11T03:18:48.119Z,20.38
2018-11-11T03:19:48.101Z,20.35
2018-11-11T03:20:48.077Z,20.39
2018-11-11T03:21:48.058Z,20.39
2018-11-11T03:22:48.037Z,20.46
2018-11-11T03:23:48.000Z,20.39
2018-11-11T03:24:47.989Z,20.34
2018-11-11T03:25:47.972Z,20.38
2018-11-11T03:26:47.952Z,20.38
2018-11-11T03:27:48.003Z,20.38
2018-11-11T03:28:47.910Z,20.38
2018-11-11T03:29:47.881Z,20.35
2018-11-11T03:30:47.873Z,20.31
2018-11-11T03:31:47.856Z,20.35
2018-11-11T03:32:47.847Z,20.39
2018-11-11T03:33:47.811Z,20.38
2018-11-11T03:34:47.787Z,20.41
2018-11-11T03:35:47.773Z,20.34
2018-11-11T03:36:47.745Z,20.31
2018-11-11T03:37:47.738Z,20.28
2018-11-11T03:38:47.690Z,20.24
2018-11-11T03:39:47.683Z,20.27
2018-11-11T03:40:47.666Z,20.18
2018-11-11T03:41:47.642Z,20.31
2018-11-11T03:42:47.622Z,20.24
2018-11-11T03:43:47.588Z,20.31
2018-11-11T03:44:47.579Z,20.21
2018-11-11T03:45:47.555Z,20.13
2018-11-11T03:46:47.540Z,20.18
2018-11-11T03:47:47.516Z,20.12
2018-11-11T03:48:47.489Z,20.20
2018-11-11T03:49:47.479Z,20.13
2018-11-11T03:50:47.437Z,20.09
2018-11-11T03:51:47.435Z,20.13
2018-11-11T03:52:47.418Z,20.18
2018-11-11T03:53:47.389Z,20.16
2018-11-11T03:54:47.360Z,20.13
2018-11-11T03:55:47.347Z,20.06
2018-11-11T03:56:47.330Z,20.15
2018-11-11T03:57:47.302Z,20.13
2018-11-11T03:58:47.371Z,20.16
2018-11-11T03:59:47.267Z,20.10
2018-11-11T04:00:47.253Z,20.12
2018-11-11T04:01:47.224Z,20.10
2018-11-11T04:02:47.203Z,20.20
2018-11-11T04:03:47.167Z,20.13
2018-11-11T04:04:47.162Z,20.15
2018-11-11T04:05:47.128Z,20.20
2018-11-11T04:06:47.105Z,20.10
2018-11-11T04:07:47.101Z,20.15
2018-11-11T04:08:47.067Z,20.15
2018-11-11T04:09:47.057Z,20.27
2018-11-11T04:10:47.039Z,20.24
2018-11-11T04:11:47.004Z,20.23
2018-11-11T04:12:46.978Z,20.24
2018-11-11T04:13:46.976Z,20.25
2018-11-11T04:14:46.957Z,20.25
2018-11-11T04:15:46.938Z,20.18
2018-11-11T04:16:46.914Z,20.21
2018-11-11T04:17:46.876Z,20.31
2018-11-11T04:18:46.877Z,20.27
2018-11-11T04:19:46.850Z,20.28
2018-11-11T04:20:46.826Z,20.30
2018-11-11T04:21:46.806Z,20.34
2018-11-11T04:22:46.792Z,20.38
2018-11-11T04:23:46.766Z,20.31
2018-11-11T04:24:46.745Z,20.34
2018-11-11T04:25:46.725Z,20.39
2018-11-11T04:26:46.704Z,20.39
2018-11-11T04:27:46.680Z,20.39
2018-11-11T04:28:46.665Z,20.31
2018-11-11T04:29:46.640Z,20.33
2018-11-11T04:30:46.624Z,20.35
2018-11-11T04:31:46.589Z,20.27
2018-11-11T04:32:46.579Z,20.24
2018-11-11T04:33:46.557Z,20.25
2018-11-11T04:34:46.537Z,20.24
2018-11-11T04:35:46.525Z,20.23
2018-11-11T04:36:46.497Z,20.27
2018-11-11T04:37:46.481Z,20.27
2018-11-11T04:38:46.463Z,20.21
2018-11-11T04:39:46.434Z,20.24
2018-11-11T04:40:46.399Z,20.24
2018-11-11T04:41:46.393Z,20.25
2018-11-11T04:42:46.371Z,20.24
2018-11-11T04:43:46.354Z,20.20
2018-11-11T04:44:46.331Z,20.24
2018-11-11T04:45:46.312Z,20.21
2018-11-11T04:46:46.291Z,20.09
2018-11-11T04:47:46.271Z,20.10
2018-11-11T04:48:46.250Z,20.09
2018-11-11T04:49:46.228Z,20.13
2018-11-11T04:50:46.204Z,20.10
2018-11-11T04:51:46.187Z,20.13
2018-11-11T04:52:46.163Z,20.08
2018-11-11T04:53:46.149Z,20.10
2018-11-11T04:54:46.125Z,20.10
2018-11-11T04:55:46.088Z,20.09
2018-11-11T04:56:46.080Z,20.10
2018-11-11T04:57:46.046Z,20.00
2018-11-11T04:58:46.028Z,20.02
2018-11-11T04:59:46.022Z,20.02
2018-11-11T05:00:45.994Z,20.02
2018-11-11T05:01:45.974Z,19.97
2018-11-11T05:02:45.952Z,20.05
2018-11-11T05:03:45.937Z,19.94
2018-11-11T05:04:46.105Z,20.02
2018-11-11T05:05:45.898Z,20.05
2018-11-11T05:06:45.877Z,20.05
2018-11-11T05:07:45.850Z,20.05
2018-11-11T05:08:45.819Z,20.02
2018-11-11T05:09:45.808Z,20.09
2018-11-11T05:10:45.789Z,20.00
2018-11-11T05:11:45.760Z,20.09
2018-11-11T05:12:45.746Z,20.13
2018-11-11T05:13:45.725Z,20.10
2018-11-11T05:14:45.694Z,19.97
2018-11-11T05:15:45.673Z,20.10
2018-11-11T05:16:45.649Z,20.08
2018-11-11T05:17:45.648Z,19.97
2018-11-11T05:18:45.603Z,20.10
2018-11-11T05:19:45.589Z,20.08
2018-11-11T05:20:45.579Z,20.13
2018-11-11T05:21:45.587Z,20.13
2018-11-11T05:22:45.535Z,20.12
2018-11-11T05:23:45.516Z,20.20
2018-11-11T05:24:45.498Z,20.13
2018-11-11T05:25:45.474Z,20.09
2018-11-11T05:26:45.457Z,20.09
2018-11-11T05:27:45.433Z,20.16
2018-11-11T05:28:45.414Z,20.12
2018-11-11T05:29:45.398Z,19.98
2018-11-11T05:30:45.383Z,20.09
2018-11-11T05:31:45.345Z,20.13
2018-11-11T05:32:45.327Z,20.16
2018-11-11T05:33:45.291Z,20.10
2018-11-11T05:34:45.287Z,20.10
2018-11-11T05:35:45.254Z,20.12
2018-11-11T05:36:45.233Z,20.15
2018-11-11T05:37:45.208Z,20.09
2018-11-11T05:38:45.221Z,20.02
2018-11-11T05:39:45.183Z,19.98
2018-11-11T05:40:45.158Z,20.08
2018-11-11T05:41:45.148Z,20.03
2018-11-11T05:42:45.121Z,20.02
2018-11-11T05:43:45.098Z,20.13
2018-11-11T05:44:45.064Z,20.06
2018-11-11T05:45:45.058Z,20.00
2018-11-11T05:46:45.033Z,20.06
2018-11-11T05:47:45.014Z,20.12
2018-11-11T05:48:45.000Z,20.15
2018-11-11T05:49:44.973Z,20.02
2018-11-11T05:50:44.953Z,20.08
2018-11-11T05:51:44.930Z,20.03
2018-11-11T05:52:44.914Z,19.97
2018-11-11T05:53:44.887Z,19.97
2018-11-11T05:54:44.871Z,19.88
2018-11-11T05:55:44.842Z,19.87
2018-11-11T05:56:44.812Z,19.87
2018-11-11T05:57:44.835Z,19.87
2018-11-11T05:58:44.786Z,19.90
2018-11-11T05:59:44.745Z,19.94
2018-11-11T06:00:44.739Z,19.84
2018-11-11T06:01:44.700Z,19.87
2018-11-11T06:02:44.690Z,19.86
2018-11-11T06:03:44.664Z,19.83
2018-11-11T06:04:44.654Z,19.79
2018-11-11T06:05:44.638Z,19.84
2018-11-11T06:06:44.612Z,19.80
2018-11-11T06:07:44.594Z,19.72
2018-11-11T06:08:44.572Z,19.80
2018-11-11T06:09:44.554Z,19.76
2018-11-11T06:10:44.538Z,19.75
2018-11-11T06:11:44.491Z,19.69
2018-11-11T06:12:44.478Z,19.70
2018-11-11T06:13:44.454Z,19.70
2018-11-11T06:14:44.451Z,19.72
2018-11-11T06:15:44.426Z,19.73
2018-11-11T06:16:44.405Z,19.72
2018-11-11T06:17:44.383Z,19.78
2018-11-11T06:18:44.369Z,19.70
2018-11-11T06:19:44.328Z,19.65
2018-11-11T06:20:44.302Z,19.65
2018-11-11T06:21:44.300Z,19.63
2018-11-11T06:22:44.258Z,19.61
2018-11-11T06:23:44.256Z,19.63
2018-11-11T06:24:44.234Z,19.57
2018-11-11T06:25:44.215Z,19.63
2018-11-11T06:26:44.202Z,19.58
2018-11-11T06:27:44.179Z,19.65
2018-11-11T06:28:44.150Z,19.60
2018-11-11T06:29:44.131Z,19.58
2018-11-11T06:30:44.099Z,19.63
2018-11-11T06:31:44.096Z,19.61
2018-11-11T06:32:44.072Z,19.65
2018-11-11T06:33:44.047Z,19.70
2018-11-11T06:34:44.029Z,19.73
2018-11-11T06:35:44.000Z,19.72
2018-11-11T06:36:43.981Z,19.75
2018-11-11T06:37:43.961Z,19.72
2018-11-11T06:38:43.925Z,19.78
2018-11-11T06:39:43.903Z,19.76
2018-11-11T06:40:43.883Z,19.65
2018-11-11T06:41:43.861Z,19.75
2018-11-11T06:42:43.851Z,19.72
2018-11-11T06:43:43.832Z,19.73
2018-11-11T06:44:43.812Z,19.76
2018-11-11T06:45:43.788Z,19.69
2018-11-11T06:46:43.772Z,19.75
2018-11-11T06:47:43.741Z,19.80
2018-11-11T06:48:43.738Z,19.83
2018-11-11T06:49:43.705Z,19.80
2018-11-11T06:50:43.692Z,19.78
2018-11-11T06:51:43.674Z,19.80
2018-11-11T06:52:43.644Z,19.86
2018-11-11T06:53:43.625Z,19.76
2018-11-11T06:54:43.603Z,19.84
2018-11-11T06:55:43.582Z,19.76
2018-11-11T06:56:43.560Z,19.75
2018-11-11T06:57:43.546Z,19.75
2018-11-11T06:58:43.506Z,19.70
2018-11-11T06:59:43.496Z,19.69
2018-11-11T07:00:43.478Z,19.70
2018-11-11T07:01:43.463Z,19.76
2018-11-11T07:02:43.433Z,19.79
2018-11-11T07:03:43.411Z,19.73
2018-11-11T07:04:43.398Z,19.72
2018-11-11T07:05:43.378Z,19.73
2018-11-11T07:06:43.347Z,19.72
2018-11-11T07:07:43.400Z,19.78
2018-11-11T07:08:43.306Z,19.68
2018-11-11T07:09:43.288Z,19.65
2018-11-11T07:10:43.272Z,19.65
2018-11-11T07:11:43.245Z,19.57
2018-11-11T07:12:43.224Z,19.60
2018-11-11T07:13:43.213Z,19.63
2018-11-11T07:14:43.184Z,19.70
2018-11-11T07:15:43.159Z,19.68
2018-11-11T07:16:43.145Z,19.60
2018-11-11T07:17:43.103Z,19.63
2018-11-11T07:18:43.096Z,19.68
2018-11-11T07:19:43.080Z,19.54
2018-11-11T07:20:43.055Z,19.61
2018-11-11T07:21:43.044Z,19.55
2018-11-11T07:22:43.017Z,19.47
2018-11-11T07:23:43.060Z,19.42
2018-11-11T07:24:42.960Z,19.51
2018-11-11T07:25:42.937Z,19.58
2018-11-11T07:26:42.919Z,19.55
2018-11-11T07:27:42.908Z,19.51
2018-11-11T07:28:42.891Z,19.60
2018-11-11T07:29:42.871Z,19.58
2018-11-11T07:30:42.839Z,19.53
2018-11-11T07:31:42.833Z,19.65
2018-11-11T07:32:42.800Z,19.63
2018-11-11T07:33:42.772Z,19.60
2018-11-11T07:34:42.761Z,19.53
2018-11-11T07:35:42.739Z,19.47
2018-11-11T07:36:42.725Z,19.48
2018-11-11T07:37:42.700Z,19.60
2018-11-11T07:38:42.678Z,19.55
2018-11-11T07:39:42.653Z,19.58
2018-11-11T07:40:42.637Z,19.61
2018-11-11T07:41:42.615Z,19.60
2018-11-11T07:42:42.593Z,19.60
2018-11-11T07:43:42.559Z,19.68
2018-11-11T07:44:42.534Z,19.66
2018-11-11T07:45:42.515Z,19.61
2018-11-11T07:46:42.506Z,19.66
2018-11-11T07:47:42.534Z,19.61
2018-11-11T07:48:42.468Z,19.65
2018-11-11T07:49:42.445Z,19.58
2018-11-11T07:50:42.428Z,19.57
2018-11-11T07:51:42.389Z,19.69
2018-11-11T07:52:42.380Z,19.53
2018-11-11T07:53:42.363Z,19.55
2018-11-11T07:54:42.404Z,19.58
2018-11-11T07:55:42.318Z,19.63
2018-11-11T07:56:42.294Z,19.63
2018-11-11T07:57:42.275Z,19.65
2018-11-11T07:58:42.251Z,19.51
2018-11-11T07:59:42.236Z,19.48
2018-11-11T08:00:42.213Z,19.63
2018-11-11T08:01:42.276Z,19.58
2018-11-11T08:02:42.159Z,19.63
2018-11-11T08:03:42.147Z,19.65
2018-11-11T08:04:42.126Z,19.60
2018-11-11T08:05:42.101Z,19.61
2018-11-11T08:06:42.085Z,19.65
2018-11-11T08:07:42.049Z,19.68
2018-11-11T08:08:42.044Z,19.58
2018-11-11T08:09:42.027Z,19.58
2018-11-11T08:10:42.006Z,19.68
2018-11-11T08:11:41.980Z,19.65
2018-11-11T08:12:41.956Z,19.60
2018-11-11T08:13:41.941Z,19.60
2018-11-11T08:14:41.919Z,19.61
2018-11-11T08:15:41.901Z,19.63
2018-11-11T08:16:41.952Z,19.76
2018-11-11T08:17:41.855Z,19.69
2018-11-11T08:18:41.837Z,19.75
2018-11-11T08:19:41.802Z,19.73
2018-11-11T08:20:41.797Z,19.70
2018-11-11T08:21:41.773Z,19.76
2018-11-11T08:22:41.733Z,19.73
2018-11-11T08:23:41.726Z,19.79
2018-11-11T08:24:41.708Z,19.75
2018-11-11T08:25:41.672Z,19.76
2018-11-11T08:26:41.719Z,19.68
2018-11-11T08:27:41.632Z,19.75
2018-11-11T08:28:41.612Z,19.72
2018-11-11T08:29:41.590Z,19.75
2018-11-11T08:30:41.584Z,19.68
2018-11-11T08:31:41.562Z,19.72
2018-11-11T08:32:41.524Z,19.75
2018-11-11T08:33:41.515Z,19.72
2018-11-11T08:34:41.499Z,19.76
2018-11-11T08:35:41.476Z,19.73
2018-11-11T08:36:41.457Z,19.78
2018-11-11T08:37:41.423Z,19.76
2018-11-11T08:38:41.413Z,19.75
2018-11-11T08:39:41.394Z,19.83
2018-11-11T08:40:41.447Z,19.86
2018-11-11T08:41:41.352Z,19.84
2018-11-11T08:42:41.340Z,19.83
2018-11-11T08:43:41.310Z,19.86
2018-11-11T08:44:41.290Z,19.76
2018-11-11T08:45:41.277Z,19.79
2018-11-11T08:46:41.253Z,19.80
2018-11-11T08:47:41.227Z,19.83
2018-11-11T08:48:41.205Z,19.79
2018-11-11T08:49:41.186Z,19.83
2018-11-11T08:50:41.167Z,19.83
2018-11-11T08:51:41.125Z,19.86
2018-11-11T08:52:41.109Z,19.86
2018-11-11T08:53:41.087Z,19.91
2018-11-11T08:54:41.080Z,19.93
2018-11-11T08:55:41.059Z,19.95
2018-11-11T08:56:41.041Z,20.00
2018-11-11T08:57:41.027Z,20.13
2018-11-11T08:58:40.997Z,20.15
2018-11-11T08:59:40.960Z,20.00
2018-11-11T09:00:40.952Z,20.02
2018-11-11T09:01:40.927Z,19.98
2018-11-11T09:02:40.918Z,20.00
2018-11-11T09:03:40.894Z,20.12
2018-11-11T09:04:40.921Z,20.10
2018-11-11T09:05:40.855Z,20.18
2018-11-11T09:06:40.835Z,20.24
2018-11-11T09:07:40.811Z,20.35
2018-11-11T09:08:40.801Z,20.35
2018-11-11T09:09:40.771Z,20.39
2018-11-11T09:10:40.750Z,20.41
2018-11-11T09:11:40.762Z,20.34
2018-11-11T09:12:40.711Z,20.27
2018-11-11T09:13:40.688Z,20.23
2018-11-11T09:14:40.668Z,20.24
2018-11-11T09:15:40.639Z,20.21
2018-11-11T09:16:40.629Z,20.25
2018-11-11T09:17:40.596Z,20.25
2018-11-11T09:18:40.586Z,20.16
2018-11-11T09:19:40.550Z,20.18
2018-11-11T09:20:40.526Z,20.08
2018-11-11T09:21:40.520Z,20.15
2018-11-11T09:22:40.485Z,20.24
2018-11-11T09:23:40.538Z,20.23
2018-11-11T09:24:40.459Z,20.28
2018-11-11T09:25:40.441Z,20.41
2018-11-11T09:26:40.419Z,20.42
2018-11-11T09:27:40.400Z,20.51
2018-11-11T09:28:40.364Z,20.64
2018-11-11T09:29:40.480Z,20.68
2018-11-11T09:30:40.338Z,20.66
2018-11-11T09:31:40.322Z,20.66
2018-11-11T09:32:40.303Z,20.86
2018-11-11T09:33:40.280Z,20.81
2018-11-11T09:34:40.261Z,20.83
2018-11-11T09:35:40.240Z,21.01
2018-11-11T09:36:40.215Z,21.11
2018-11-11T09:37:40.185Z,21.13
2018-11-11T09:38:40.174Z,21.32
2018-11-11T09:39:40.155Z,21.29
2018-11-11T09:40:40.123Z,21.36
2018-11-11T09:41:40.121Z,21.38
2018-11-11T09:42:40.157Z,21.69
2018-11-11T09:43:40.076Z,22.74
2018-11-11T09:44:40.060Z,23.61
2018-11-11T09:45:40.045Z,24.37
2018-11-11T09:46:40.007Z,24.53
2018-11-11T09:47:40.062Z,25.19
2018-11-11T09:48:39.985Z,26.01
2018-11-11T09:49:39.958Z,26.61
2018-11-11T09:50:39.943Z,26.84
2018-11-11T09:51:39.921Z,27.10
2018-11-11T09:52:39.963Z,26.96
2018-11-11T09:53:39.882Z,27.17
2018-11-11T09:54:39.871Z,27.48
2018-11-11T09:55:39.845Z,27.79
2018-11-11T09:56:39.920Z,28.16
2018-11-11T09:57:39.817Z,28.47
2018-11-11T09:58:39.913Z,28.85
2018-11-11T09:59:39.900Z,29.20
2018-11-11T10:00:39.760Z,29.52
2018-11-11T10:01:39.745Z,29.53
2018-11-11T10:02:39.715Z,29.38
2018-11-11T10:03:39.718Z,29.18
2018-11-11T10:04:39.703Z,28.87
2018-11-11T10:05:39.684Z,28.73
2018-11-11T10:06:39.793Z,28.75
2018-11-11T10:07:39.660Z,28.58
2018-11-11T10:08:39.639Z,28.29
2018-11-11T10:09:39.620Z,27.94
2018-11-11T10:10:39.614Z,27.14
2018-11-11T10:11:39.593Z,27.02
2018-11-11T10:12:39.613Z,26.94
2018-11-11T10:13:39.567Z,26.74
2018-11-11T10:14:39.549Z,26.62
2018-11-11T10:15:39.536Z,26.65
2018-11-11T10:16:39.516Z,26.49
2018-11-11T10:17:39.511Z,26.43
2018-11-11T10:18:39.495Z,26.35
2018-11-11T10:19:39.482Z,26.36
2018-11-11T10:20:39.473Z,26.94
2018-11-11T10:21:39.431Z,26.95
2018-11-11T10:22:39.430Z,27.31
2018-11-11T10:23:39.418Z,27.46
2018-11-11T10:24:39.383Z,27.38
2018-11-11T10:25:39.379Z,27.35
2018-11-11T10:26:39.358Z,27.19
2018-11-11T10:27:39.354Z,26.92
2018-11-11T10:28:39.338Z,26.55
2018-11-11T10:29:39.360Z,26.12
2018-11-11T10:30:39.307Z,25.93
2018-11-11T10:31:39.292Z,25.74
2018-11-11T10:32:39.267Z,25.75
2018-11-11T10:33:39.375Z,25.97
2018-11-11T10:34:39.248Z,26.21
2018-11-11T10:35:39.235Z,26.31
2018-11-11T10:36:39.218Z,26.29
2018-11-11T10:37:39.203Z,26.64
2018-11-11T10:38:39.188Z,26.68
2018-11-11T10:39:39.176Z,26.59
2018-11-11T10:40:39.156Z,26.76
2018-11-11T10:41:39.138Z,26.89
2018-11-11T10:42:39.126Z,26.76
2018-11-11T10:43:39.107Z,26.73
2018-11-11T10:44:39.102Z,26.83
2018-11-11T10:45:39.082Z,26.80
2018-11-11T10:46:39.061Z,26.81
2018-11-11T10:47:39.056Z,26.94
2018-11-11T10:48:39.119Z,27.04
2018-11-11T10:49:39.020Z,27.36
2018-11-11T10:50:39.008Z,27.48
2018-11-11T10:51:38.995Z,26.99
2018-11-11T10:52:38.975Z,26.81
2018-11-11T10:53:38.974Z,26.81
2018-11-11T10:54:38.954Z,27.38
2018-11-11T10:55:38.937Z,27.94
2018-11-11T10:56:38.923Z,28.25
2018-11-11T10:57:38.910Z,28.28
2018-11-11T10:58:38.889Z,28.33
2018-11-11T10:59:38.875Z,28.63
2018-11-11T11:00:38.868Z,28.38
2018-11-11T11:01:38.834Z,28.28
2018-11-11T11:02:38.838Z,28.23
2018-11-11T11:03:38.831Z,28.19
2018-11-11T11:04:38.809Z,28.29
2018-11-11T11:05:38.789Z,28.38
2018-11-11T11:06:38.787Z,28.59
2018-11-11T11:07:38.769Z,28.75
2018-11-11T11:08:38.748Z,28.88
2018-11-11T11:09:38.785Z,28.95
2018-11-11T11:10:38.724Z,29.10
2018-11-11T11:11:38.717Z,29.50
2018-11-11T11:12:38.714Z,29.45
2018-11-11T11:13:38.709Z,29.52
2018-11-11T11:14:38.692Z,28.97
2018-11-11T11:15:38.673Z,28.85
2018-11-11T11:16:38.662Z,28.75
2018-11-11T11:17:38.652Z,28.51
2018-11-11T11:18:38.638Z,28.90
2018-11-11T11:19:38.627Z,29.45
2018-11-11T11:20:38.616Z,29.53
2018-11-11T11:21:38.605Z,29.59
2018-11-11T11:22:38.610Z,29.25
2018-11-11T11:23:38.586Z,28.73
2018-11-11T11:24:38.572Z,28.22
2018-11-11T11:25:38.567Z,27.84
2018-11-11T11:26:38.530Z,27.69
2018-11-11T11:27:38.531Z,27.74
2018-11-11T11:28:38.530Z,27.82
2018-11-11T11:29:38.510Z,28.36
2018-11-11T11:30:38.487Z,28.50
2018-11-11T11:31:38.614Z,28.43
2018-11-11T11:32:38.474Z,28.22
2018-11-11T11:33:38.460Z,27.95
2018-11-11T11:34:38.452Z,27.71
2018-11-11T11:35:38.515Z,27.74
2018-11-11T11:36:38.428Z,27.79
2018-11-11T11:37:38.413Z,27.80
2018-11-11T11:38:38.411Z,27.74
2018-11-11T11:39:38.393Z,27.76
2018-11-11T11:40:38.376Z,27.36
2018-11-11T11:41:38.370Z,26.95
2018-11-11T11:42:38.359Z,26.36
2018-11-11T11:43:38.338Z,25.83
2018-11-11T11:44:38.331Z,25.50
2018-11-11T11:45:38.323Z,25.31
2018-11-11T11:46:38.292Z,25.39
2018-11-11T11:47:38.278Z,25.83
2018-11-11T11:48:38.275Z,26.24
2018-11-11T11:49:38.263Z,26.52
2018-11-11T11:50:38.244Z,26.67
2018-11-11T11:51:38.232Z,27.20
2018-11-11T11:52:38.208Z,26.95
2018-11-11T11:53:38.190Z,26.49
2018-11-11T11:54:38.190Z,26.42
2018-11-11T11:55:38.175Z,26.52
2018-11-11T11:56:38.149Z,26.47
2018-11-11T11:57:38.150Z,26.61
2018-11-11T11:58:38.136Z,26.47
2018-11-11T11:59:38.125Z,26.25
2018-11-11T12:00:38.107Z,26.08
2018-11-11T12:01:38.099Z,26.06
2018-11-11T12:02:38.077Z,26.15
2018-11-11T12:03:38.053Z,26.20
2018-11-11T12:04:38.050Z,26.37
2018-11-11T12:05:38.034Z,26.36
2018-11-11T12:06:38.005Z,26.24
2018-11-11T12:07:38.004Z,25.94
2018-11-11T12:08:38.045Z,25.69
2018-11-11T12:09:37.978Z,25.59
2018-11-11T12:10:37.971Z,25.77
2018-11-11T12:12:11.142Z,26.42
2018-11-11T12:12:37.915Z,27.11
2018-11-11T12:13:37.921Z,27.43
2018-11-11T12:14:37.908Z,27.54
2018-11-11T12:15:37.877Z,27.59
2018-11-11T12:16:37.912Z,27.39
2018-11-11T12:17:37.859Z,27.35
2018-11-11T12:18:37.854Z,27.23
2018-11-11T12:19:37.846Z,27.43
2018-11-11T12:20:37.811Z,27.84
2018-11-11T12:21:37.809Z,28.32
2018-11-11T12:22:37.792Z,28.33
2018-11-11T12:23:37.782Z,28.01
2018-11-11T12:24:37.764Z,28.04
2018-11-11T12:25:37.821Z,28.36
2018-11-11T12:26:37.735Z,28.33
2018-11-11T12:27:37.723Z,27.99
2018-11-11T12:28:37.709Z,27.74
2018-11-11T12:29:37.697Z,27.59
2018-11-11T12:30:37.736Z,27.54
2018-11-11T12:31:37.658Z,27.35
2018-11-11T12:32:37.653Z,26.98
2018-11-11T12:33:37.677Z,26.52
2018-11-11T12:34:37.623Z,26.28
2018-11-11T12:35:37.615Z,25.97
2018-11-11T12:36:37.591Z,25.72
2018-11-11T12:37:37.584Z,25.64
2018-11-11T12:38:37.563Z,25.77
2018-11-11T12:39:37.575Z,25.94
2018-11-11T12:40:37.534Z,26.12
2018-11-11T12:41:37.521Z,26.15
2018-11-11T12:42:37.507Z,26.37
2018-11-11T12:43:37.484Z,26.73
2018-11-11T12:44:37.515Z,27.11
2018-11-11T12:45:37.458Z,27.48
2018-11-11T12:46:37.477Z,27.84
2018-11-11T12:47:37.427Z,27.77
2018-11-11T12:48:37.411Z,27.86
2018-11-11T12:49:37.398Z,27.89
2018-11-11T12:50:37.381Z,27.71
2018-11-11T12:51:37.369Z,27.53
2018-11-11T12:52:37.357Z,27.41